TAF and METAR

No METAR available for Balmaceda Airport

TAF for Balmaceda Airport

TAF SCBA 282230Z 2900/2924 VRB02KT 9999 SCT030 TNM07/2912Z TX05/2919Z BECMG 2900/2902 CAVOK
Report created 29. mai 00:30

between 29. mai 02:00 - 29. mai 02:00

wind 2 knots from various directions visibility > 10km scattered clouds (~50% cover) at 3000 feet Min temperature -07° expected today at around 14 o'clock